Agua Dulce, California
Current Conditions -  °F | °C
As of 12:56 AM on Wednesday 22 Oct 2014 (Local Time) from KWJF Reporting Station
Clear Clear  
Wind Chill: 58°   Ceiling: Unl
Heat Index: 58°   Visibility: 10mi
Dew Point: 40°   Wind: 15mph
Humidity: 51%   Direction: 290°WNW
Pressure: 29.95"   Gusts: NA
Location:  34.513°N, 118.402°W
Report Text: KWJF 220756Z 29013KT 10SM CLR 14/04 A2995 RMK AO2 SLP133 T01440044 402440117
Loading
Personal Weather Stations






























Interactive Weather Map
Tropical Storm Tracking
New forecast layout! Learn more

10-Day Weather Forecast

Advertisements
Track Severe Weather on mobile